createdAt,value
2018-03-11T00:00:50.722Z,9.20
2018-03-11T00:03:18.193Z,9.20
2018-03-11T00:05:45.648Z,9.30
2018-03-11T00:08:13.114Z,9.30
2018-03-11T00:10:40.751Z,9.40
2018-03-11T00:13:08.222Z,9.40
2018-03-11T00:15:35.717Z,9.40
2018-03-11T00:18:03.177Z,9.50
2018-03-11T00:20:30.656Z,9.50
2018-03-11T00:22:58.881Z,9.60
2018-03-11T00:25:26.348Z,9.50
2018-03-11T00:27:53.906Z,9.60
2018-03-11T00:30:21.461Z,9.60
2018-03-11T00:32:48.914Z,9.60
2018-03-11T00:35:16.362Z,9.60
2018-03-11T00:37:43.956Z,9.60
2018-03-11T00:40:12.177Z,9.50
2018-03-11T00:42:39.666Z,9.50
2018-03-11T00:45:07.123Z,9.50
2018-03-11T00:47:34.688Z,9.50
2018-03-11T00:50:02.236Z,9.50
2018-03-11T00:52:30.488Z,9.50
2018-03-11T00:54:57.974Z,9.50
2018-03-11T00:57:25.533Z,9.50
2018-03-11T00:59:52.984Z,9.50
2018-03-11T01:02:20.446Z,9.50
2018-03-11T01:04:48.817Z,9.50
2018-03-11T01:07:16.375Z,9.50
2018-03-11T01:09:43.859Z,9.50
2018-03-11T01:12:12.082Z,9.50
2018-03-11T01:14:39.552Z,9.50
2018-03-11T01:17:07.040Z,9.50
2018-03-11T01:19:34.521Z,9.50
2018-03-11T01:22:01.977Z,9.50
2018-03-11T01:24:29.437Z,9.50
2018-03-11T01:26:56.905Z,9.50
2018-03-11T01:29:24.389Z,9.50
2018-03-11T01:31:51.961Z,9.50
2018-03-11T01:34:19.417Z,9.50
2018-03-11T01:36:46.974Z,9.50
2018-03-11T01:39:14.448Z,9.50
2018-03-11T01:41:42.693Z,9.40
2018-03-11T01:44:10.169Z,9.40
2018-03-11T01:46:37.655Z,9.40
2018-03-11T01:49:05.161Z,9.30
2018-03-11T01:51:32.646Z,9.30
2018-03-11T01:54:00.905Z,9.20
2018-03-11T01:56:28.462Z,9.20
2018-03-11T01:58:55.913Z,9.10
2018-03-11T02:01:23.373Z,9.10
2018-03-11T02:03:50.925Z,9.00
2018-03-11T02:06:18.391Z,8.90
2018-03-11T02:08:45.847Z,8.90
2018-03-11T02:11:13.403Z,8.80
2018-03-11T02:13:40.856Z,8.90
2018-03-11T02:16:08.327Z,8.80
2018-03-11T02:18:36.577Z,8.80
2018-03-11T02:21:04.088Z,8.70
2018-03-11T02:23:31.548Z,8.70
2018-03-11T02:25:59.032Z,8.60
2018-03-11T02:28:26.516Z,8.50
2018-03-11T02:30:54.002Z,8.40
2018-03-11T02:33:21.458Z,8.30
2018-03-11T02:35:48.911Z,8.20
2018-03-11T02:38:17.155Z,8.10
2018-03-11T02:40:44.702Z,8.10
2018-03-11T02:43:12.960Z,7.90
2018-03-11T02:45:40.409Z,7.90
2018-03-11T02:48:07.984Z,7.80
2018-03-11T02:50:35.561Z,7.70
2018-03-11T02:53:03.096Z,7.70
2018-03-11T02:55:30.665Z,7.60
2018-03-11T02:57:58.151Z,7.60
2018-03-11T03:00:26.397Z,7.50
2018-03-11T03:02:53.962Z,7.50
2018-03-11T03:05:21.453Z,7.50
2018-03-11T03:07:48.974Z,7.40
2018-03-11T03:10:16.520Z,7.50
2018-03-11T03:12:44.077Z,7.50
2018-03-11T03:15:11.650Z,7.50
2018-03-11T03:17:39.200Z,7.60
2018-03-11T03:20:06.672Z,7.60
2018-03-11T03:22:34.116Z,7.60
2018-03-11T03:25:01.619Z,7.60
2018-03-11T03:27:29.129Z,7.60
2018-03-11T03:29:56.585Z,7.70
2018-03-11T03:32:24.051Z,7.60
2018-03-11T03:34:51.529Z,7.60
2018-03-11T03:37:18.986Z,7.60
2018-03-11T03:39:47.229Z,7.60
2018-03-11T03:42:14.693Z,7.50
2018-03-11T03:44:42.149Z,7.50
2018-03-11T03:47:09.634Z,7.60
2018-03-11T03:49:37.131Z,7.50
2018-03-11T03:52:04.585Z,7.50
2018-03-11T03:54:32.068Z,7.50
2018-03-11T03:56:59.524Z,7.50
2018-03-11T03:59:27.004Z,7.50
2018-03-11T04:01:55.221Z,7.40
2018-03-11T04:04:22.689Z,7.40
2018-03-11T04:06:50.908Z,7.50
2018-03-11T04:09:18.397Z,7.50
2018-03-11T04:11:45.849Z,7.50
2018-03-11T04:14:13.582Z,7.50
2018-03-11T04:16:41.803Z,7.50
2018-03-11T04:19:09.418Z,7.50
2018-03-11T04:21:36.936Z,7.60
2018-03-11T04:24:04.392Z,7.60
2018-03-11T04:26:31.873Z,7.60
2018-03-11T04:29:00.093Z,7.80
2018-03-11T04:31:27.585Z,7.70
2018-03-11T04:33:55.797Z,7.80
2018-03-11T04:36:23.272Z,7.80
2018-03-11T04:38:50.731Z,7.80
2018-03-11T04:41:18.234Z,7.90
2018-03-11T04:43:45.783Z,7.90
2018-03-11T04:46:13.283Z,7.90
2018-03-11T04:48:40.733Z,8.00
2018-03-11T04:51:08.213Z,8.00
2018-03-11T04:53:35.697Z,8.00
2018-03-11T04:56:03.266Z,8.00
2018-03-11T04:58:30.746Z,8.00
2018-03-11T05:00:58.986Z,8.20
2018-03-11T05:03:26.552Z,8.20
2018-03-11T05:05:54.024Z,8.30
2018-03-11T05:08:22.242Z,8.40
2018-03-11T05:10:49.739Z,8.40
2018-03-11T05:13:17.189Z,8.50
2018-03-11T05:15:44.637Z,8.60
2018-03-11T05:18:12.114Z,8.60
2018-03-11T05:20:39.568Z,8.70
2018-03-11T05:23:07.045Z,8.80
2018-03-11T05:25:35.260Z,8.90
2018-03-11T05:28:02.746Z,8.90
2018-03-11T05:30:30.198Z,9.00
2018-03-11T05:32:57.682Z,9.10
2018-03-11T05:35:25.934Z,9.20
2018-03-11T05:37:53.391Z,9.20
2018-03-11T05:40:20.869Z,9.20
2018-03-11T05:42:49.104Z,9.30
2018-03-11T05:45:16.556Z,9.30
2018-03-11T05:47:44.042Z,9.40
2018-03-11T05:50:12.401Z,9.40
2018-03-11T05:52:39.857Z,9.40
2018-03-11T05:55:07.340Z,9.50
2018-03-11T05:57:35.589Z,9.50
2018-03-11T06:00:03.042Z,9.50
2018-03-11T06:02:30.500Z,9.60
2018-03-11T06:04:58.055Z,9.60
2018-03-11T06:07:25.519Z,9.70
2018-03-11T06:09:53.005Z,9.70
2018-03-11T06:12:21.237Z,9.80
2018-03-11T06:14:48.697Z,9.80
2018-03-11T06:17:16.231Z,9.80
2018-03-11T06:19:43.765Z,9.80
2018-03-11T06:22:11.248Z,9.80
2018-03-11T06:24:38.700Z,9.80
2018-03-11T06:27:06.189Z,9.80
2018-03-11T06:29:33.666Z,9.90
2018-03-11T06:32:01.904Z,9.90
2018-03-11T06:34:29.382Z,9.90
2018-03-11T06:36:56.868Z,10.00
2018-03-11T06:39:24.327Z,10.00
2018-03-11T06:41:51.805Z,10.10
2018-03-11T06:44:19.272Z,10.10
2018-03-11T06:46:46.824Z,10.10
2018-03-11T06:49:14.285Z,10.10
2018-03-11T06:51:41.760Z,10.10
2018-03-11T06:54:09.229Z,10.10
2018-03-11T06:56:36.696Z,10.10
2018-03-11T06:59:04.912Z,10.10
2018-03-11T07:01:32.373Z,10.00
2018-03-11T07:03:59.981Z,10.10
2018-03-11T07:06:27.433Z,10.10
2018-03-11T07:08:54.879Z,10.10
2018-03-11T07:11:22.348Z,10.20
2018-03-11T07:13:50.613Z,10.20
2018-03-11T07:16:18.133Z,10.20
2018-03-11T07:18:45.551Z,10.30
2018-03-11T07:21:13.773Z,10.30
2018-03-11T07:23:41.624Z,10.30
2018-03-11T07:26:09.081Z,10.30
2018-03-11T07:28:36.537Z,10.40
2018-03-11T07:31:04.018Z,10.40
2018-03-11T07:33:31.512Z,10.40
2018-03-11T07:35:59.026Z,10.40
2018-03-11T07:38:27.217Z,10.40
2018-03-11T07:40:54.775Z,10.40
2018-03-11T07:43:22.225Z,10.40
2018-03-11T07:45:49.694Z,10.50
2018-03-11T07:48:17.930Z,10.50
2018-03-11T07:50:45.412Z,10.50
2018-03-11T07:53:12.866Z,10.60
2018-03-11T07:55:40.345Z,10.60
2018-03-11T07:58:08.578Z,10.60
2018-03-11T08:00:36.037Z,10.60
2018-03-11T08:03:03.650Z,10.60
2018-03-11T08:05:31.105Z,10.70
2018-03-11T08:07:58.568Z,10.70
2018-03-11T08:10:26.202Z,10.70
2018-03-11T08:12:54.416Z,10.70
2018-03-11T08:15:21.876Z,10.70
2018-03-11T08:17:49.344Z,10.70
2018-03-11T08:20:17.033Z,10.70
2018-03-11T08:22:44.445Z,10.70
2018-03-11T08:25:12.138Z,10.70
2018-03-11T08:27:39.699Z,10.70
2018-03-11T08:30:07.260Z,10.70
2018-03-11T08:32:35.497Z,10.60
2018-03-11T08:35:03.387Z,10.60
2018-03-11T08:37:30.884Z,10.70
2018-03-11T08:39:59.113Z,10.70
2018-03-11T08:42:26.681Z,10.60
2018-03-11T08:44:54.912Z,10.70
2018-03-11T08:47:22.418Z,10.70
2018-03-11T08:49:49.871Z,10.70
2018-03-11T08:52:17.416Z,10.70
2018-03-11T08:54:44.989Z,10.70
2018-03-11T08:57:13.466Z,10.70
2018-03-11T08:59:41.119Z,10.70
2018-03-11T09:02:08.605Z,10.70
2018-03-11T09:04:36.849Z,10.80
2018-03-11T09:07:07.397Z,10.80
2018-03-11T09:09:36.954Z,10.80
2018-03-11T09:12:05.758Z,10.80
2018-03-11T09:14:33.297Z,10.80
2018-03-11T09:17:01.832Z,10.80
2018-03-11T09:19:33.085Z,10.80
2018-03-11T09:22:02.195Z,10.90
2018-03-11T09:24:30.361Z,10.80
2018-03-11T09:27:02.744Z,10.90
2018-03-11T09:29:31.100Z,10.90
2018-03-11T09:31:58.849Z,11.00
2018-03-11T09:34:26.329Z,11.00
2018-03-11T09:36:53.814Z,11.00
2018-03-11T09:39:21.328Z,11.00
2018-03-11T09:41:49.581Z,11.00
2018-03-11T09:44:17.152Z,11.00
2018-03-11T09:46:45.383Z,11.00
2018-03-11T09:49:12.865Z,11.00
2018-03-11T09:51:41.114Z,11.00
2018-03-11T09:54:08.622Z,11.00
2018-03-11T09:56:36.843Z,11.00
2018-03-11T09:59:04.296Z,11.00
2018-03-11T10:01:31.800Z,11.00
2018-03-11T10:04:00.166Z,11.10
2018-03-11T10:06:27.621Z,11.10
2018-03-11T10:08:55.291Z,11.10
2018-03-11T10:11:23.555Z,11.10
2018-03-11T10:13:51.025Z,11.10
2018-03-11T10:16:19.775Z,11.20
2018-03-11T10:18:47.422Z,11.20
2018-03-11T10:21:14.901Z,11.20
2018-03-11T10:23:42.472Z,11.30
2018-03-11T10:26:09.935Z,11.30
2018-03-11T10:28:38.203Z,11.40
2018-03-11T10:31:08.386Z,11.40
2018-03-11T10:33:35.925Z,11.40
2018-03-11T10:36:03.388Z,11.40
2018-03-11T10:38:30.879Z,11.50
2018-03-11T10:40:58.368Z,11.50
2018-03-11T10:43:26.661Z,11.60
2018-03-11T10:45:54.092Z,11.60
2018-03-11T10:48:22.355Z,11.80
2018-03-11T10:50:50.677Z,11.90
2018-03-11T10:53:18.058Z,11.90
2018-03-11T10:55:45.532Z,12.00
2018-03-11T10:58:13.773Z,12.20
2018-03-11T11:00:43.062Z,12.20
2018-03-11T11:03:16.385Z,12.30
2018-03-11T11:05:43.873Z,12.40
2018-03-11T11:08:11.415Z,12.50
2018-03-11T11:10:39.069Z,12.50
2018-03-11T11:13:06.537Z,12.70
2018-03-11T11:15:34.017Z,12.70
2018-03-11T11:18:02.307Z,12.80
2018-03-11T11:20:29.748Z,12.90
2018-03-11T11:22:58.101Z,13.10
2018-03-11T11:25:25.645Z,13.10
2018-03-11T11:27:53.221Z,13.10
2018-03-11T11:30:20.765Z,13.30
2018-03-11T11:32:48.256Z,13.40
2018-03-11T11:35:16.510Z,13.70
2018-03-11T11:37:44.080Z,13.70
2018-03-11T11:40:12.298Z,13.90
2018-03-11T11:42:39.787Z,13.90
2018-03-11T11:45:07.343Z,14.00
2018-03-11T11:47:34.801Z,14.00
2018-03-11T11:50:03.076Z,14.00
2018-03-11T11:52:30.548Z,14.00
2018-03-11T11:54:59.255Z,13.90
2018-03-11T11:57:26.773Z,13.90
2018-03-11T11:59:55.208Z,13.90
2018-03-11T12:02:22.698Z,13.90
2018-03-11T12:04:50.270Z,13.80
2018-03-11T12:07:18.226Z,13.80
2018-03-11T12:09:45.663Z,13.80
2018-03-11T12:12:13.202Z,13.80
2018-03-11T12:14:41.422Z,13.80
2018-03-11T12:17:09.658Z,13.70
2018-03-11T12:19:37.162Z,13.70
2018-03-11T12:22:05.400Z,13.60
2018-03-11T12:24:32.844Z,13.60
2018-03-11T12:27:00.316Z,13.60
2018-03-11T12:29:27.787Z,13.50
2018-03-11T12:31:55.262Z,13.50
2018-03-11T12:34:22.807Z,13.40
2018-03-11T12:36:50.196Z,13.30
2018-03-11T12:39:17.705Z,13.30
2018-03-11T12:41:45.262Z,13.20
2018-03-11T12:44:12.821Z,13.20
2018-03-11T12:46:40.393Z,13.10
2018-03-11T12:49:08.786Z,13.00
2018-03-11T12:51:37.000Z,13.00
2018-03-11T12:54:29.589Z,12.90
2018-03-11T12:56:57.087Z,12.90
2018-03-11T12:59:24.590Z,12.80
2018-03-11T13:01:52.069Z,12.80
2018-03-11T13:04:19.576Z,12.70
2018-03-11T13:06:47.072Z,12.70
2018-03-11T13:09:14.525Z,12.70
2018-03-11T13:11:42.042Z,12.70
2018-03-11T13:14:09.505Z,12.60
2018-03-11T13:16:36.996Z,12.60
2018-03-11T13:19:04.477Z,12.60
2018-03-11T13:21:32.729Z,12.60
2018-03-11T13:24:00.951Z,12.60
2018-03-11T13:26:28.430Z,12.50
2018-03-11T13:28:55.901Z,12.50
2018-03-11T13:31:23.907Z,12.50
2018-03-11T13:34:03.927Z,12.40
2018-03-11T13:36:31.394Z,12.40
2018-03-11T13:42:03.318Z,12.40
2018-03-11T13:44:30.801Z,12.30
2018-03-11T13:47:05.322Z,12.30
2018-03-11T13:49:33.066Z,12.30
2018-03-11T13:52:13.822Z,12.20
2018-03-11T13:54:41.322Z,12.20
2018-03-11T14:00:10.358Z,12.10
2018-03-11T14:02:38.616Z,12.10
2018-03-11T14:05:06.090Z,12.10
2018-03-11T14:07:34.504Z,12.00
2018-03-11T14:10:02.562Z,12.00
2018-03-11T14:12:30.011Z,12.00
2018-03-11T14:14:57.489Z,12.00
2018-03-11T14:17:25.046Z,11.90
2018-03-11T14:19:55.144Z,11.90
2018-03-11T14:22:22.884Z,11.90
2018-03-11T14:24:52.590Z,11.90
2018-03-11T14:27:26.055Z,11.80
2018-03-11T14:29:54.643Z,11.80
2018-03-11T14:32:23.456Z,11.80
2018-03-11T14:34:51.694Z,11.70
2018-03-11T14:37:19.179Z,11.70
2018-03-11T14:39:46.671Z,11.70
2018-03-11T14:42:14.163Z,11.60
2018-03-11T14:44:41.613Z,11.60
2018-03-11T14:47:09.194Z,11.60
2018-03-11T14:49:36.694Z,11.50
2018-03-11T14:52:04.185Z,11.50
2018-03-11T14:54:31.713Z,11.50
2018-03-11T14:56:59.199Z,11.40
2018-03-11T14:59:26.710Z,11.40
2018-03-11T15:01:54.270Z,11.40
2018-03-11T15:04:22.230Z,11.40
2018-03-11T15:06:50.747Z,11.30
2018-03-11T15:09:18.671Z,11.30
2018-03-11T15:11:46.982Z,11.20
2018-03-11T15:14:14.594Z,11.20
2018-03-11T15:16:42.066Z,11.20
2018-03-11T15:19:10.429Z,11.10
2018-03-11T15:21:42.143Z,11.10
2018-03-11T15:24:10.210Z,11.10
2018-03-11T15:26:37.873Z,11.00
2018-03-11T15:29:05.353Z,11.00
2018-03-11T15:31:32.922Z,11.00
2018-03-11T15:34:00.441Z,10.90
2018-03-11T15:36:28.172Z,10.90
2018-03-11T15:38:55.688Z,10.80
2018-03-11T15:41:23.194Z,10.80
2018-03-11T15:43:50.711Z,10.70
2018-03-11T15:46:18.170Z,10.70
2018-03-11T15:48:45.726Z,10.60
2018-03-11T15:51:13.283Z,10.60
2018-03-11T15:53:40.773Z,10.50
2018-03-11T15:56:08.262Z,10.50
2018-03-11T15:58:35.740Z,10.50
2018-03-11T16:01:03.220Z,10.40
2018-03-11T16:03:30.736Z,10.40
2018-03-11T16:05:58.237Z,10.30
2018-03-11T16:08:26.660Z,10.30
2018-03-11T16:10:54.175Z,10.30
2018-03-11T16:13:22.397Z,10.30
2018-03-11T16:15:49.990Z,10.20
2018-03-11T16:18:17.613Z,10.20
2018-03-11T16:20:45.206Z,10.20
2018-03-11T16:23:12.767Z,10.10
2018-03-11T16:25:40.293Z,10.10
2018-03-11T16:28:07.771Z,10.10
2018-03-11T16:30:35.617Z,10.10
2018-03-11T16:33:03.094Z,10.00
2018-03-11T16:35:30.568Z,10.00
2018-03-11T16:37:58.108Z,10.00
2018-03-11T16:40:25.672Z,9.90
2018-03-11T16:42:53.931Z,9.90
2018-03-11T16:45:21.425Z,9.90
2018-03-11T16:47:49.654Z,9.90
2018-03-11T16:50:18.664Z,9.80
2018-03-11T16:52:46.205Z,9.80
2018-03-11T16:55:13.661Z,9.80
2018-03-11T16:57:41.154Z,9.80
2018-03-11T17:00:08.593Z,9.80
2018-03-11T17:02:36.069Z,9.80
2018-03-11T17:05:04.296Z,9.80
2018-03-11T17:07:31.797Z,9.70
2018-03-11T17:09:59.232Z,9.70
2018-03-11T17:12:27.476Z,9.70
2018-03-11T17:14:54.953Z,9.70
2018-03-11T17:17:22.409Z,9.70
2018-03-11T17:19:50.687Z,9.60
2018-03-11T17:22:18.153Z,9.60
2018-03-11T17:24:45.629Z,9.60
2018-03-11T17:27:13.849Z,9.60
2018-03-11T17:29:41.333Z,9.50
2018-03-11T17:32:08.821Z,9.50
2018-03-11T17:34:36.342Z,9.50
2018-03-11T17:37:04.570Z,9.50
2018-03-11T17:39:34.441Z,9.50
2018-03-11T17:42:01.962Z,9.50
2018-03-11T17:44:29.415Z,9.50
2018-03-11T17:46:56.889Z,9.50
2018-03-11T17:49:24.473Z,9.40
2018-03-11T17:51:51.943Z,9.40
2018-03-11T17:54:19.508Z,9.40
2018-03-11T17:56:47.758Z,9.40
2018-03-11T17:59:15.213Z,9.30
2018-03-11T18:01:42.716Z,9.30
2018-03-11T18:04:10.209Z,9.30
2018-03-11T18:06:37.777Z,9.30
2018-03-11T18:09:05.243Z,9.30
2018-03-11T18:11:32.700Z,9.30
2018-03-11T18:14:00.158Z,9.30
2018-03-11T18:16:28.397Z,9.20
2018-03-11T18:18:55.879Z,9.20
2018-03-11T18:21:23.337Z,9.20
2018-03-11T18:23:51.566Z,9.20
2018-03-11T18:26:19.058Z,9.20
2018-03-11T18:28:46.517Z,9.20
2018-03-11T18:31:14.988Z,9.20
2018-03-11T18:33:42.567Z,9.20
2018-03-11T18:36:10.030Z,9.10
2018-03-11T18:38:37.912Z,9.10
2018-03-11T18:41:06.325Z,9.10
2018-03-11T18:43:33.839Z,9.10
2018-03-11T18:46:01.285Z,9.10
2018-03-11T18:48:29.641Z,9.10
2018-03-11T18:50:57.172Z,9.00
2018-03-11T18:53:26.185Z,9.00
2018-03-11T18:55:53.725Z,9.00
2018-03-11T18:58:21.843Z,9.00
2018-03-11T19:00:50.356Z,9.00
2018-03-11T19:03:18.325Z,9.00
2018-03-11T19:05:46.216Z,9.00
2018-03-11T19:08:13.693Z,9.00
2018-03-11T19:10:41.386Z,9.00
2018-03-11T19:13:09.232Z,9.00
2018-03-11T19:15:37.527Z,9.00
2018-03-11T19:18:05.895Z,8.90
2018-03-11T19:20:33.340Z,8.90
2018-03-11T19:23:00.873Z,8.90
2018-03-11T19:25:28.386Z,8.90
2018-03-11T19:27:55.889Z,9.00
2018-03-11T19:30:24.962Z,9.00
2018-03-11T19:32:52.450Z,9.00
2018-03-11T19:35:20.398Z,9.00
2018-03-11T19:37:48.165Z,9.00
2018-03-11T19:40:15.910Z,9.00
2018-03-11T19:42:43.387Z,9.00
2018-03-11T19:45:10.883Z,9.00
2018-03-11T19:47:39.167Z,9.10
2018-03-11T19:50:06.691Z,9.00
2018-03-11T19:52:34.317Z,9.10
2018-03-11T19:55:01.805Z,9.10
2018-03-11T19:57:29.380Z,9.10
2018-03-11T20:00:15.081Z,9.10
2018-03-11T20:02:44.099Z,9.10
2018-03-11T20:05:12.118Z,9.10
2018-03-11T20:07:39.652Z,9.10
2018-03-11T20:10:07.176Z,9.10
2018-03-11T20:12:34.685Z,9.10
2018-03-11T20:15:03.028Z,9.10
2018-03-11T20:17:30.518Z,9.00
2018-03-11T20:19:58.005Z,9.10
2018-03-11T20:22:25.643Z,9.10
2018-03-11T20:24:53.961Z,9.00
2018-03-11T20:27:21.457Z,9.00
2018-03-11T20:29:48.935Z,9.00
2018-03-11T20:32:17.243Z,9.00
2018-03-11T20:34:45.661Z,9.00
2018-03-11T20:37:13.908Z,9.00
2018-03-11T20:39:41.439Z,9.00
2018-03-11T20:42:08.979Z,9.00
2018-03-11T20:44:37.243Z,9.00
2018-03-11T20:47:04.781Z,9.00
2018-03-11T20:49:32.309Z,9.00
2018-03-11T20:51:59.811Z,9.00
2018-03-11T20:54:28.147Z,9.10
2018-03-11T20:56:55.669Z,9.00
2018-03-11T20:59:23.192Z,9.10
2018-03-11T21:01:50.761Z,9.00
2018-03-11T21:04:18.316Z,9.00
2018-03-11T21:06:45.889Z,9.00
2018-03-11T21:09:14.173Z,9.00
2018-03-11T21:11:41.670Z,9.00
2018-03-11T21:14:09.189Z,8.90
2018-03-11T21:19:28.787Z,8.90
2018-03-11T21:21:56.305Z,8.90
2018-03-11T21:24:23.866Z,8.90
2018-03-11T21:26:52.167Z,8.90
2018-03-11T21:29:20.412Z,8.90
2018-03-11T21:31:48.007Z,8.80
2018-03-11T21:34:15.480Z,8.80
2018-03-11T21:36:43.083Z,8.70
2018-03-11T21:39:11.334Z,8.60
2018-03-11T21:41:38.844Z,8.60
2018-03-11T21:44:07.065Z,8.60
2018-03-11T21:46:34.593Z,8.50
2018-03-11T21:49:03.647Z,8.50
2018-03-11T21:51:31.203Z,8.40
2018-03-11T21:53:58.756Z,8.40
2018-03-11T21:56:26.412Z,8.30
2018-03-11T21:58:53.876Z,8.30
2018-03-11T22:01:21.358Z,8.30
2018-03-11T22:03:49.605Z,8.20
2018-03-11T22:06:17.157Z,8.20
2018-03-11T22:08:44.719Z,8.20
2018-03-11T22:11:12.278Z,8.10
2018-03-11T22:13:40.551Z,8.10
2018-03-11T22:16:08.016Z,8.10
2018-03-11T22:18:35.571Z,8.10
2018-03-11T22:21:03.033Z,8.10
2018-03-11T22:23:34.799Z,8.10
2018-03-11T22:26:02.280Z,8.00
2018-03-11T22:28:29.783Z,8.10
2018-03-11T22:30:57.237Z,8.10
2018-03-11T22:33:25.523Z,8.20
2018-03-11T22:35:52.979Z,8.20
2018-03-11T22:38:20.525Z,8.30
2018-03-11T22:40:47.996Z,8.40
2018-03-11T22:43:15.451Z,8.40
2018-03-11T22:45:43.682Z,8.50
2018-03-11T22:48:11.176Z,8.50
2018-03-11T22:50:38.735Z,8.60
2018-03-11T22:53:06.198Z,8.60
2018-03-11T22:55:33.747Z,8.70
2018-03-11T22:58:01.303Z,8.70
2018-03-11T23:00:28.765Z,8.70
2018-03-11T23:02:56.418Z,8.80
2018-03-11T23:05:23.879Z,8.80
2018-03-11T23:07:51.435Z,8.80
2018-03-11T23:10:18.914Z,8.80
2018-03-11T23:12:47.163Z,8.90
2018-03-11T23:15:14.713Z,8.80
2018-03-11T23:17:42.963Z,8.90
2018-03-11T23:20:10.454Z,8.90
2018-03-11T23:22:38.014Z,8.90
2018-03-11T23:25:05.568Z,8.90
2018-03-11T23:27:33.031Z,8.90
2018-03-11T23:30:00.584Z,8.90
2018-03-11T23:32:28.141Z,8.90
2018-03-11T23:34:55.694Z,9.00
2018-03-11T23:37:23.249Z,9.00
2018-03-11T23:39:50.726Z,9.00
2018-03-11T23:42:18.947Z,8.90
2018-03-11T23:44:46.405Z,8.90
2018-03-11T23:47:13.917Z,8.90
2018-03-11T23:49:42.182Z,8.90
2018-03-11T23:52:09.745Z,8.80
2018-03-11T23:54:37.990Z,8.80
2018-03-11T23:57:05.465Z,8.70
2018-03-11T23:59:32.924Z,8.70
